sensor_id;sensor_type;location;lat;lon;timestamp;pressure;altitude;pressure_sealevel;temperature;humidity
12676;BME280;63820;65.654;21.944;2023-01-25T00:00:49;100058.13;;;1.11;100.00
12676;BME280;63820;65.654;21.944;2023-01-25T00:03:34;100062.34;;;1.15;100.00
12676;BME280;63820;65.654;21.944;2023-01-25T00:06:18;100033.44;;;1.06;100.00
12676;BME280;63820;65.654;21.944;2023-01-25T00:09:03;100063.94;;;1.25;100.00
12676;BME280;63820;65.654;21.944;2023-01-25T00:11:47;100033.34;;;1.13;100.00
12676;BME280;63820;65.654;21.944;2023-01-25T00:14:32;100056.19;;;1.31;100.00
12676;BME280;63820;65.654;21.944;2023-01-25T00:17:16;100030.63;;;1.27;100.00
12676;BME280;63820;65.654;21.944;2023-01-25T00:20:01;100013.56;;;1.24;100.00
12676;BME280;63820;65.654;21.944;2023-01-25T00:22:45;99998.19;;;1.24;100.00
12676;BME280;63820;65.654;21.944;2023-01-25T00:25:29;100027.00;;;1.42;100.00
12676;BME280;63820;65.654;21.944;2023-01-25T00:28:14;100017.66;;;1.38;100.00
12676;BME280;63820;65.654;21.944;2023-01-25T00:30:59;99993.69;;;1.42;100.00
12676;BME280;63820;65.654;21.944;2023-01-25T00:33:56;99995.28;;;1.50;100.00
12676;BME280;63820;65.654;21.944;2023-01-25T00:36:43;99984.13;;;1.53;100.00
12676;BME280;63820;65.654;21.944;2023-01-25T00:39:28;99994.25;;;1.62;100.00
12676;BME280;63820;65.654;21.944;2023-01-25T00:42:14;99992.44;;;1.69;100.00
12676;BME280;63820;65.654;21.944;2023-01-25T00:44:58;99955.91;;;1.56;100.00
12676;BME280;63820;65.654;21.944;2023-01-25T00:47:43;99948.09;;;1.63;100.00
12676;BME280;63820;65.654;21.944;2023-01-25T00:50:27;99923.44;;;1.55;100.00
12676;BME280;63820;65.654;21.944;2023-01-25T00:53:11;99943.59;;;1.78;100.00
12676;BME280;63820;65.654;21.944;2023-01-25T00:55:56;99942.59;;;1.86;100.00
12676;BME280;63820;65.654;21.944;2023-01-25T00:58:40;99928.00;;;1.90;100.00
12676;BME280;63820;65.654;21.944;2023-01-25T01:01:25;99912.69;;;1.85;100.00
12676;BME280;63820;65.654;21.944;2023-01-25T01:04:09;99945.72;;;2.04;100.00
12676;BME280;63820;65.654;21.944;2023-01-25T01:06:53;99947.38;;;2.08;100.00
12676;BME280;63820;65.654;21.944;2023-01-25T01:09:38;99944.81;;;2.08;100.00
12676;BME280;63820;65.654;21.944;2023-01-25T01:12:22;99942.63;;;2.31;100.00
12676;BME280;63820;65.654;21.944;2023-01-25T01:15:07;99913.06;;;2.12;100.00
12676;BME280;63820;65.654;21.944;2023-01-25T01:17:51;99921.38;;;2.24;100.00
12676;BME280;63820;65.654;21.944;2023-01-25T01:20:35;99910.09;;;2.33;100.00
12676;BME280;63820;65.654;21.944;2023-01-25T01:23:19;99902.47;;;2.30;100.00
12676;BME280;63820;65.654;21.944;2023-01-25T01:26:06;99876.16;;;2.19;100.00
12676;BME280;63820;65.654;21.944;2023-01-25T01:28:51;99870.84;;;2.28;100.00
12676;BME280;63820;65.654;21.944;2023-01-25T01:31:35;99892.81;;;2.41;100.00
12676;BME280;63820;65.654;21.944;2023-01-25T01:34:19;99875.81;;;2.37;100.00
12676;BME280;63820;65.654;21.944;2023-01-25T01:37:03;99872.19;;;2.47;100.00
12676;BME280;63820;65.654;21.944;2023-01-25T01:39:47;99880.56;;;2.55;100.00
12676;BME280;63820;65.654;21.944;2023-01-25T01:42:31;99867.06;;;2.46;100.00
12676;BME280;63820;65.654;21.944;2023-01-25T01:48:44;99854.22;;;2.47;100.00
12676;BME280;63820;65.654;21.944;2023-01-25T01:52:30;99843.91;;;2.49;100.00
12676;BME280;63820;65.654;21.944;2023-01-25T01:54:58;99841.44;;;2.44;100.00
12676;BME280;63820;65.654;21.944;2023-01-25T01:57:50;99832.66;;;2.54;100.00
12676;BME280;63820;65.654;21.944;2023-01-25T02:00:38;99836.03;;;2.56;100.00
12676;BME280;63820;65.654;21.944;2023-01-25T02:03:23;99801.19;;;2.46;100.00
12676;BME280;63820;65.654;21.944;2023-01-25T02:06:14;99821.47;;;2.58;100.00
12676;BME280;63820;65.654;21.944;2023-01-25T02:09:00;99823.19;;;2.58;100.00
12676;BME280;63820;65.654;21.944;2023-01-25T02:11:45;99817.19;;;2.57;100.00
12676;BME280;63820;65.654;21.944;2023-01-25T02:14:30;99798.41;;;2.55;100.00
12676;BME280;63820;65.654;21.944;2023-01-25T02:17:38;99779.63;;;2.53;100.00
12676;BME280;63820;65.654;21.944;2023-01-25T02:23:41;99777.66;;;2.65;100.00
12676;BME280;63820;65.654;21.944;2023-01-25T02:26:32;99751.41;;;2.53;100.00
12676;BME280;63820;65.654;21.944;2023-01-25T02:29:16;99745.34;;;2.56;100.00
12676;BME280;63820;65.654;21.944;2023-01-25T02:32:04;99733.28;;;2.59;100.00
12676;BME280;63820;65.654;21.944;2023-01-25T02:34:49;99737.56;;;2.59;100.00
12676;BME280;63820;65.654;21.944;2023-01-25T02:37:33;99726.38;;;2.61;100.00
12676;BME280;63820;65.654;21.944;2023-01-25T02:40:18;99716.94;;;2.63;100.00
12676;BME280;63820;65.654;21.944;2023-01-25T02:43:02;99712.50;;;2.70;100.00
12676;BME280;63820;65.654;21.944;2023-01-25T02:45:49;99693.97;;;2.57;100.00
12676;BME280;63820;65.654;21.944;2023-01-25T02:48:35;99715.97;;;2.68;100.00
12676;BME280;63820;65.654;21.944;2023-01-25T02:51:21;99697.25;;;2.62;100.00
12676;BME280;63820;65.654;21.944;2023-01-25T02:54:07;99715.16;;;2.66;100.00
12676;BME280;63820;65.654;21.944;2023-01-25T02:56:52;99699.09;;;2.57;100.00
12676;BME280;63820;65.654;21.944;2023-01-25T02:59:36;99692.50;;;2.47;100.00
12676;BME280;63820;65.654;21.944;2023-01-25T03:02:20;99702.69;;;2.50;100.00
12676;BME280;63820;65.654;21.944;2023-01-25T03:05:05;99683.03;;;2.49;100.00
12676;BME280;63820;65.654;21.944;2023-01-25T03:07:50;99690.44;;;2.61;100.00
12676;BME280;63820;65.654;21.944;2023-01-25T03:10:34;99670.06;;;2.55;100.00
12676;BME280;63820;65.654;21.944;2023-01-25T03:13:18;99664.94;;;2.54;100.00
12676;BME280;63820;65.654;21.944;2023-01-25T03:16:08;99658.09;;;2.54;100.00
12676;BME280;63820;65.654;21.944;2023-01-25T03:18:53;99667.31;;;2.63;100.00
12676;BME280;63820;65.654;21.944;2023-01-25T03:21:40;99669.00;;;2.64;100.00
12676;BME280;63820;65.654;21.944;2023-01-25T03:24:24;99649.28;;;2.65;100.00
12676;BME280;63820;65.654;21.944;2023-01-25T03:27:09;99639.25;;;2.55;100.00
12676;BME280;63820;65.654;21.944;2023-01-25T03:29:54;99656.72;;;2.75;100.00
12676;BME280;63820;65.654;21.944;2023-01-25T03:32:37;99653.41;;;2.72;100.00
12676;BME280;63820;65.654;21.944;2023-01-25T03:35:21;99643.78;;;2.80;100.00
12676;BME280;63820;65.654;21.944;2023-01-25T03:38:06;99649.06;;;2.74;100.00
12676;BME280;63820;65.654;21.944;2023-01-25T03:40:51;99650.09;;;2.67;100.00
12676;BME280;63820;65.654;21.944;2023-01-25T03:43:35;99635.78;;;2.56;100.00
12676;BME280;63820;65.654;21.944;2023-01-25T03:46:19;99629.81;;;2.56;100.00
12676;BME280;63820;65.654;21.944;2023-01-25T03:49:03;99585.53;;;2.48;100.00
12676;BME280;63820;65.654;21.944;2023-01-25T03:51:48;99619.72;;;2.84;100.00
12676;BME280;63820;65.654;21.944;2023-01-25T03:54:32;99623.72;;;2.94;100.00
12676;BME280;63820;65.654;21.944;2023-01-25T03:57:17;99609.44;;;2.84;100.00
12676;BME280;63820;65.654;21.944;2023-01-25T04:00:01;99602.81;;;3.08;100.00
12676;BME280;63820;65.654;21.944;2023-01-25T04:02:46;99596.03;;;3.05;100.00
12676;BME280;63820;65.654;21.944;2023-01-25T04:05:30;99582.34;;;3.05;100.00
12676;BME280;63820;65.654;21.944;2023-01-25T04:08:15;99583.91;;;3.10;100.00
12676;BME280;63820;65.654;21.944;2023-01-25T04:11:02;99582.91;;;3.14;100.00
12676;BME280;63820;65.654;21.944;2023-01-25T04:13:46;99578.72;;;3.12;100.00
12676;BME280;63820;65.654;21.944;2023-01-25T04:16:31;99570.34;;;3.05;100.00
12676;BME280;63820;65.654;21.944;2023-01-25T04:19:15;99574.38;;;3.12;100.00
12676;BME280;63820;65.654;21.944;2023-01-25T04:21:59;99567.84;;;3.02;100.00
12676;BME280;63820;65.654;21.944;2023-01-25T04:24:44;99532.94;;;2.95;100.00
12676;BME280;63820;65.654;21.944;2023-01-25T04:27:28;99546.91;;;3.14;100.00
12676;BME280;63820;65.654;21.944;2023-01-25T04:30:12;99540.16;;;3.12;100.00
12676;BME280;63820;65.654;21.944;2023-01-25T04:33:02;99539.84;;;3.22;100.00
12676;BME280;63820;65.654;21.944;2023-01-25T04:35:46;99528.72;;;3.22;100.00
12676;BME280;63820;65.654;21.944;2023-01-25T04:38:30;99532.09;;;3.24;100.00
12676;BME280;63820;65.654;21.944;2023-01-25T04:41:14;99515.91;;;3.20;100.00
12676;BME280;63820;65.654;21.944;2023-01-25T04:43:59;99527.59;;;3.31;100.00
12676;BME280;63820;65.654;21.944;2023-01-25T04:46:43;99525.25;;;3.23;100.00
12676;BME280;63820;65.654;21.944;2023-01-25T04:49:26;99528.41;;;3.33;100.00
12676;BME280;63820;65.654;21.944;2023-01-25T04:52:10;99481.13;;;3.10;100.00
12676;BME280;63820;65.654;21.944;2023-01-25T04:54:55;99512.19;;;3.31;100.00
12676;BME280;63820;65.654;21.944;2023-01-25T04:57:39;99511.22;;;3.35;100.00
12676;BME280;63820;65.654;21.944;2023-01-25T05:00:24;99492.59;;;3.26;100.00
12676;BME280;63820;65.654;21.944;2023-01-25T05:03:09;99506.25;;;3.28;100.00
12676;BME280;63820;65.654;21.944;2023-01-25T05:05:53;99495.34;;;3.20;100.00
12676;BME280;63820;65.654;21.944;2023-01-25T05:08:38;99487.78;;;3.16;100.00
12676;BME280;63820;65.654;21.944;2023-01-25T05:11:22;99499.81;;;3.14;100.00
12676;BME280;63820;65.654;21.944;2023-01-25T05:14:06;99519.44;;;3.16;100.00
12676;BME280;63820;65.654;21.944;2023-01-25T05:16:50;99505.00;;;3.12;100.00
12676;BME280;63820;65.654;21.944;2023-01-25T05:19:34;99486.84;;;3.18;100.00
12676;BME280;63820;65.654;21.944;2023-01-25T05:22:18;99495.34;;;3.20;100.00
12676;BME280;63820;65.654;21.944;2023-01-25T05:25:06;99492.38;;;3.34;100.00
12676;BME280;63820;65.654;21.944;2023-01-25T05:28:11;99491.13;;;3.47;100.00
12676;BME280;63820;65.654;21.944;2023-01-25T05:30:55;99481.53;;;3.52;100.00
12676;BME280;63820;65.654;21.944;2023-01-25T05:33:39;99480.78;;;3.49;100.00
12676;BME280;63820;65.654;21.944;2023-01-25T05:36:23;99476.63;;;3.45;100.00
12676;BME280;63820;65.654;21.944;2023-01-25T05:39:07;99466.50;;;3.40;100.00
12676;BME280;63820;65.654;21.944;2023-01-25T05:41:52;99448.34;;;3.45;100.00
12676;BME280;63820;65.654;21.944;2023-01-25T05:44:36;99460.50;;;3.40;100.00
12676;BME280;63820;65.654;21.944;2023-01-25T05:47:20;99461.41;;;3.39;100.00
12676;BME280;63820;65.654;21.944;2023-01-25T05:50:05;99467.31;;;3.41;100.00
12676;BME280;63820;65.654;21.944;2023-01-25T05:52:49;99464.53;;;3.48;100.00
12676;BME280;63820;65.654;21.944;2023-01-25T05:55:34;99451.44;;;3.56;100.00
12676;BME280;63820;65.654;21.944;2023-01-25T05:58:19;99447.78;;;3.63;100.00
12676;BME280;63820;65.654;21.944;2023-01-25T06:01:06;99432.16;;;3.69;100.00
12676;BME280;63820;65.654;21.944;2023-01-25T06:03:51;99442.16;;;3.78;100.00
12676;BME280;63820;65.654;21.944;2023-01-25T06:06:35;99434.88;;;3.65;100.00
12676;BME280;63820;65.654;21.944;2023-01-25T06:09:20;99436.34;;;3.72;100.00
12676;BME280;63820;65.654;21.944;2023-01-25T06:12:05;99430.47;;;3.68;100.00
12676;BME280;63820;65.654;21.944;2023-01-25T06:14:50;99395.91;;;3.50;100.00
12676;BME280;63820;65.654;21.944;2023-01-25T06:17:34;99436.56;;;3.66;100.00
12676;BME280;63820;65.654;21.944;2023-01-25T06:20:18;99433.94;;;3.67;100.00
12676;BME280;63820;65.654;21.944;2023-01-25T06:23:03;99426.38;;;3.63;100.00
12676;BME280;63820;65.654;21.944;2023-01-25T06:25:48;99416.03;;;3.64;100.00
12676;BME280;63820;65.654;21.944;2023-01-25T06:28:33;99417.63;;;3.68;100.00
12676;BME280;63820;65.654;21.944;2023-01-25T06:31:18;99401.63;;;3.58;100.00
12676;BME280;63820;65.654;21.944;2023-01-25T06:34:03;99409.41;;;3.57;100.00
12676;BME280;63820;65.654;21.944;2023-01-25T06:36:49;99394.06;;;3.54;100.00
12676;BME280;63820;65.654;21.944;2023-01-25T06:39:33;99413.66;;;3.58;100.00
12676;BME280;63820;65.654;21.944;2023-01-25T06:42:18;99399.75;;;3.64;100.00
12676;BME280;63820;65.654;21.944;2023-01-25T06:45:02;99382.81;;;3.58;100.00
12676;BME280;63820;65.654;21.944;2023-01-25T06:47:48;99377.16;;;3.73;100.00
12676;BME280;63820;65.654;21.944;2023-01-25T06:50:32;99372.81;;;3.75;100.00
12676;BME280;63820;65.654;21.944;2023-01-25T06:53:17;99391.75;;;3.73;100.00
12676;BME280;63820;65.654;21.944;2023-01-25T06:56:05;99381.44;;;3.99;100.00
12676;BME280;63820;65.654;21.944;2023-01-25T06:58:50;99390.09;;;3.97;100.00
12676;BME280;63820;65.654;21.944;2023-01-25T07:01:34;99369.59;;;3.93;100.00
12676;BME280;63820;65.654;21.944;2023-01-25T07:04:18;99377.53;;;3.87;100.00
12676;BME280;63820;65.654;21.944;2023-01-25T07:07:03;99386.63;;;3.98;100.00
12676;BME280;63820;65.654;21.944;2023-01-25T07:09:50;99397.06;;;3.93;100.00
12676;BME280;63820;65.654;21.944;2023-01-25T07:12:34;99393.66;;;3.92;100.00
12676;BME280;63820;65.654;21.944;2023-01-25T07:15:18;99383.38;;;3.92;100.00
12676;BME280;63820;65.654;21.944;2023-01-25T07:18:03;99389.97;;;4.00;100.00
12676;BME280;63820;65.654;21.944;2023-01-25T07:20:47;99393.50;;;3.97;100.00
12676;BME280;63820;65.654;21.944;2023-01-25T07:23:32;99381.47;;;3.98;100.00
12676;BME280;63820;65.654;21.944;2023-01-25T07:26:22;99363.09;;;4.08;100.00
12676;BME280;63820;65.654;21.944;2023-01-25T07:29:07;99379.69;;;4.00;100.00
12676;BME280;63820;65.654;21.944;2023-01-25T07:31:54;99360.91;;;3.98;100.00
12676;BME280;63820;65.654;21.944;2023-01-25T07:34:39;99354.69;;;3.78;100.00
12676;BME280;63820;65.654;21.944;2023-01-25T07:37:23;99369.09;;;3.84;100.00
12676;BME280;63820;65.654;21.944;2023-01-25T07:40:10;99356.56;;;3.73;100.00
12676;BME280;63820;65.654;21.944;2023-01-25T07:42:56;99364.78;;;3.84;100.00
12676;BME280;63820;65.654;21.944;2023-01-25T07:45:41;99358.41;;;3.70;100.00
12676;BME280;63820;65.654;21.944;2023-01-25T07:48:28;99353.91;;;3.76;100.00
12676;BME280;63820;65.654;21.944;2023-01-25T07:51:14;99359.63;;;3.84;100.00
12676;BME280;63820;65.654;21.944;2023-01-25T07:54:13;99335.91;;;3.76;100.00
12676;BME280;63820;65.654;21.944;2023-01-25T07:56:57;99365.81;;;3.79;100.00
12676;BME280;63820;65.654;21.944;2023-01-25T07:59:41;99364.97;;;3.78;100.00
12676;BME280;63820;65.654;21.944;2023-01-25T08:02:26;99341.25;;;3.70;100.00
12676;BME280;63820;65.654;21.944;2023-01-25T08:05:10;99350.22;;;3.83;100.00
12676;BME280;63820;65.654;21.944;2023-01-25T08:07:55;99352.97;;;3.79;100.00
12676;BME280;63820;65.654;21.944;2023-01-25T08:10:40;99339.84;;;3.86;100.00
12676;BME280;63820;65.654;21.944;2023-01-25T08:13:24;99344.41;;;3.78;100.00
12676;BME280;63820;65.654;21.944;2023-01-25T08:16:08;99336.91;;;3.72;100.00
12676;BME280;63820;65.654;21.944;2023-01-25T08:18:55;99341.88;;;3.77;100.00
12676;BME280;63820;65.654;21.944;2023-01-25T08:21:40;99330.53;;;3.82;100.00
12676;BME280;63820;65.654;21.944;2023-01-25T08:24:24;99333.28;;;3.78;100.00
12676;BME280;63820;65.654;21.944;2023-01-25T08:27:08;99331.38;;;3.83;100.00
12676;BME280;63820;65.654;21.944;2023-01-25T08:29:53;99323.56;;;3.86;100.00
12676;BME280;63820;65.654;21.944;2023-01-25T08:32:38;99318.38;;;3.87;100.00
12676;BME280;63820;65.654;21.944;2023-01-25T08:35:22;99313.84;;;3.94;100.00
12676;BME280;63820;65.654;21.944;2023-01-25T08:38:07;99297.78;;;3.87;100.00
12676;BME280;63820;65.654;21.944;2023-01-25T08:40:51;99304.84;;;4.06;100.00
12676;BME280;63820;65.654;21.944;2023-01-25T08:43:36;99297.53;;;3.95;100.00
12676;BME280;63820;65.654;21.944;2023-01-25T08:46:21;99320.41;;;4.03;100.00
12676;BME280;63820;65.654;21.944;2023-01-25T08:49:06;99295.91;;;3.92;100.00
12676;BME280;63820;65.654;21.944;2023-01-25T08:51:52;99315.94;;;4.08;100.00
12676;BME280;63820;65.654;21.944;2023-01-25T08:54:36;99299.66;;;4.07;100.00
12676;BME280;63820;65.654;21.944;2023-01-25T08:57:21;99307.38;;;4.07;100.00
12676;BME280;63820;65.654;21.944;2023-01-25T09:00:06;99306.47;;;4.08;100.00
12676;BME280;63820;65.654;21.944;2023-01-25T09:02:50;99305.84;;;4.02;100.00
12676;BME280;63820;65.654;21.944;2023-01-25T09:05:37;99288.28;;;3.89;100.00
12676;BME280;63820;65.654;21.944;2023-01-25T09:08:21;99304.06;;;4.27;100.00
12676;BME280;63820;65.654;21.944;2023-01-25T09:11:18;99313.47;;;4.28;100.00
12676;BME280;63820;65.654;21.944;2023-01-25T09:14:03;99313.47;;;4.28;100.00
12676;BME280;63820;65.654;21.944;2023-01-25T09:16:48;99312.56;;;4.29;100.00
12676;BME280;63820;65.654;21.944;2023-01-25T09:19:32;99305.56;;;4.33;100.00
12676;BME280;63820;65.654;21.944;2023-01-25T09:22:16;99287.50;;;4.34;100.00
12676;BME280;63820;65.654;21.944;2023-01-25T09:25:01;99284.63;;;4.42;100.00
12676;BME280;63820;65.654;21.944;2023-01-25T09:27:48;99285.69;;;4.36;100.00
12676;BME280;63820;65.654;21.944;2023-01-25T09:30:33;99292.88;;;4.28;100.00
12676;BME280;63820;65.654;21.944;2023-01-25T09:33:18;99301.16;;;4.36;100.00
12676;BME280;63820;65.654;21.944;2023-01-25T09:36:03;99299.56;;;4.32;100.00
12676;BME280;63820;65.654;21.944;2023-01-25T09:38:47;99291.06;;;4.30;100.00
12676;BME280;63820;65.654;21.944;2023-01-25T09:47:59;99323.31;;;4.40;100.00
12676;BME280;63820;65.654;21.944;2023-01-25T09:54:11;99327.00;;;4.33;100.00
12676;BME280;63820;65.654;21.944;2023-01-25T09:56:57;99298.84;;;4.28;100.00
12676;BME280;63820;65.654;21.944;2023-01-25T09:59:43;99313.22;;;4.34;100.00
12676;BME280;63820;65.654;21.944;2023-01-25T10:05:53;99321.94;;;4.08;100.00
12676;BME280;63820;65.654;21.944;2023-01-25T10:08:48;99322.41;;;3.94;100.00
12676;BME280;63820;65.654;21.944;2023-01-25T10:11:36;99320.72;;;4.17;100.00
12676;BME280;63820;65.654;21.944;2023-01-25T10:14:21;99301.16;;;3.89;100.00
12676;BME280;63820;65.654;21.944;2023-01-25T10:17:34;99299.72;;;4.06;100.00
12676;BME280;63820;65.654;21.944;2023-01-25T10:20:57;99300.41;;;3.86;100.00
12676;BME280;63820;65.654;21.944;2023-01-25T10:26:35;99299.22;;;3.71;100.00
12676;BME280;63820;65.654;21.944;2023-01-25T10:29:22;99281.31;;;3.68;100.00
12676;BME280;63820;65.654;21.944;2023-01-25T10:32:32;99276.59;;;3.81;100.00
12676;BME280;63820;65.654;21.944;2023-01-25T10:35:21;99284.13;;;3.85;100.00
12676;BME280;63820;65.654;21.944;2023-01-25T10:38:57;99285.81;;;3.86;100.00
12676;BME280;63820;65.654;21.944;2023-01-25T10:41:24;99279.66;;;3.90;100.00
12676;BME280;63820;65.654;21.944;2023-01-25T10:44:11;99270.13;;;3.94;100.00
12676;BME280;63820;65.654;21.944;2023-01-25T10:47:28;99270.41;;;4.10;100.00
12676;BME280;63820;65.654;21.944;2023-01-25T10:53:37;99272.88;;;4.13;100.00
12676;BME280;63820;65.654;21.944;2023-01-25T10:56:27;99282.56;;;4.28;100.00
12676;BME280;63820;65.654;21.944;2023-01-25T10:59:23;99272.75;;;4.38;100.00
12676;BME280;63820;65.654;21.944;2023-01-25T11:05:32;99273.47;;;4.65;100.00
12676;BME280;63820;65.654;21.944;2023-01-25T11:08:40;99278.06;;;4.56;100.00
12676;BME280;63820;65.654;21.944;2023-01-25T11:11:34;99274.31;;;4.42;100.00
12676;BME280;63820;65.654;21.944;2023-01-25T11:14:22;99267.59;;;4.61;100.00
12676;BME280;63820;65.654;21.944;2023-01-25T11:17:28;99265.13;;;4.58;100.00
12676;BME280;63820;65.654;21.944;2023-01-25T11:20:18;99259.13;;;4.57;100.00
12676;BME280;63820;65.654;21.944;2023-01-25T11:23:27;99261.34;;;4.67;100.00
12676;BME280;63820;65.654;21.944;2023-01-25T11:26:16;99264.09;;;4.62;100.00
12676;BME280;63820;65.654;21.944;2023-01-25T11:31:54;99249.44;;;4.86;100.00
12676;BME280;63820;65.654;21.944;2023-01-25T11:34:40;99241.47;;;4.92;100.00
12676;BME280;63820;65.654;21.944;2023-01-25T11:37:38;99247.16;;;5.00;100.00
12676;BME280;63820;65.654;21.944;2023-01-25T11:47:01;99245.16;;;5.07;100.00
12676;BME280;63820;65.654;21.944;2023-01-25T12:05:38;99241.22;;;5.39;100.00
12676;BME280;63820;65.654;21.944;2023-01-25T12:08:44;99251.91;;;5.50;100.00
12676;BME280;63820;65.654;21.944;2023-01-25T12:17:55;99273.41;;;5.50;100.00
12676;BME280;63820;65.654;21.944;2023-01-25T12:21:30;99236.56;;;5.47;100.00
12676;BME280;63820;65.654;21.944;2023-01-25T12:33:26;99288.03;;;5.50;100.00
12676;BME280;63820;65.654;21.944;2023-01-25T12:36:31;99286.56;;;5.44;100.00
12676;BME280;63820;65.654;21.944;2023-01-25T12:39:31;99294.09;;;5.49;100.00
12676;BME280;63820;65.654;21.944;2023-01-25T12:42:21;99291.06;;;5.39;100.00
12676;BME280;63820;65.654;21.944;2023-01-25T12:45:18;99304.72;;;5.41;100.00
12676;BME280;63820;65.654;21.944;2023-01-25T12:51:04;99298.41;;;5.28;100.00
12676;BME280;63820;65.654;21.944;2023-01-25T12:53:48;99297.44;;;5.31;100.00
12676;BME280;63820;65.654;21.944;2023-01-25T13:06:52;99288.53;;;5.17;100.00
12676;BME280;63820;65.654;21.944;2023-01-25T13:09:42;99295.16;;;5.23;100.00
12676;BME280;63820;65.654;21.944;2023-01-25T13:12:28;99292.75;;;5.20;100.00
12676;BME280;63820;65.654;21.944;2023-01-25T13:15:36;99297.56;;;5.28;100.00
12676;BME280;63820;65.654;21.944;2023-01-25T13:18:34;99292.53;;;5.24;100.00
12676;BME280;63820;65.654;21.944;2023-01-25T13:25:04;99294.59;;;5.16;100.00
12676;BME280;63820;65.654;21.944;2023-01-25T13:27:39;99305.03;;;5.13;100.00
12676;BME280;63820;65.654;21.944;2023-01-25T13:30:32;99309.72;;;5.04;100.00
12676;BME280;63820;65.654;21.944;2023-01-25T13:33:31;99312.47;;;4.99;100.00
12676;BME280;63820;65.654;21.944;2023-01-25T13:36:36;99319.72;;;4.89;100.00
12676;BME280;63820;65.654;21.944;2023-01-25T13:45:17;99311.78;;;4.50;100.00
12676;BME280;63820;65.654;21.944;2023-01-25T13:48:22;99313.63;;;4.47;100.00
12676;BME280;63820;65.654;21.944;2023-01-25T13:51:09;99316.91;;;4.50;100.00
12676;BME280;63820;65.654;21.944;2023-01-25T13:53:58;99298.06;;;4.50;100.00
12676;BME280;63820;65.654;21.944;2023-01-25T13:56:42;99299.72;;;4.51;100.00
12676;BME280;63820;65.654;21.944;2023-01-25T13:59:27;99314.13;;;4.56;100.00
12676;BME280;63820;65.654;21.944;2023-01-25T14:02:20;99313.88;;;4.63;100.00
12676;BME280;63820;65.654;21.944;2023-01-25T14:05:05;99317.00;;;4.71;100.00
12676;BME280;63820;65.654;21.944;2023-01-25T14:07:53;99306.47;;;4.77;100.00
12676;BME280;63820;65.654;21.944;2023-01-25T14:10:43;99313.13;;;5.04;100.00
12676;BME280;63820;65.654;21.944;2023-01-25T14:13:27;99312.13;;;5.08;100.00
12676;BME280;63820;65.654;21.944;2023-01-25T14:16:11;99302.81;;;5.04;100.00
12676;BME280;63820;65.654;21.944;2023-01-25T14:19:19;99301.94;;;5.25;100.00
12676;BME280;63820;65.654;21.944;2023-01-25T14:27:58;99299.03;;;5.13;100.00
12676;BME280;63820;65.654;21.944;2023-01-25T14:30:43;99313.28;;;5.21;100.00
12676;BME280;63820;65.654;21.944;2023-01-25T14:33:29;99312.38;;;5.22;100.00
12676;BME280;63820;65.654;21.944;2023-01-25T14:36:15;99318.56;;;5.18;100.00
12676;BME280;63820;65.654;21.944;2023-01-25T14:38:59;99314.88;;;5.24;100.00
12676;BME280;63820;65.654;21.944;2023-01-25T14:41:44;99318.31;;;5.24;100.00
12676;BME280;63820;65.654;21.944;2023-01-25T14:44:32;99315.59;;;5.28;100.00
12676;BME280;63820;65.654;21.944;2023-01-25T14:47:30;99307.69;;;5.32;100.00
12676;BME280;63820;65.654;21.944;2023-01-25T14:53:22;99325.94;;;5.48;100.00
12676;BME280;63820;65.654;21.944;2023-01-25T14:59:40;99331.22;;;5.45;100.00
12676;BME280;63820;65.654;21.944;2023-01-25T15:05:33;99335.94;;;5.55;100.00
12676;BME280;63820;65.654;21.944;2023-01-25T15:11:40;99356.41;;;5.60;100.00
12676;BME280;63820;65.654;21.944;2023-01-25T15:14:29;99367.22;;;5.48;100.00
12676;BME280;63820;65.654;21.944;2023-01-25T15:17:40;99366.22;;;5.30;100.00
12676;BME280;63820;65.654;21.944;2023-01-25T15:20:38;99371.56;;;5.25;100.00
12676;BME280;63820;65.654;21.944;2023-01-25T15:23:25;99376.59;;;5.29;100.00
12676;BME280;63820;65.654;21.944;2023-01-25T15:26:22;99385.50;;;5.42;100.00
12676;BME280;63820;65.654;21.944;2023-01-25T15:31:56;99382.81;;;5.45;100.00
12676;BME280;63820;65.654;21.944;2023-01-25T15:34:40;99396.59;;;5.44;100.00
12676;BME280;63820;65.654;21.944;2023-01-25T15:37:24;99401.72;;;5.45;100.00
12676;BME280;63820;65.654;21.944;2023-01-25T15:40:09;99415.88;;;5.35;100.00
12676;BME280;63820;65.654;21.944;2023-01-25T15:42:54;99414.47;;;5.26;100.00
12676;BME280;63820;65.654;21.944;2023-01-25T15:45:40;99423.94;;;5.26;100.00
12676;BME280;63820;65.654;21.944;2023-01-25T15:48:40;99429.94;;;5.26;100.00
12676;BME280;63820;65.654;21.944;2023-01-25T15:51:25;99451.25;;;5.10;100.00
12676;BME280;63820;65.654;21.944;2023-01-25T15:54:09;99443.81;;;4.79;100.00
12676;BME280;63820;65.654;21.944;2023-01-25T15:56:55;99447.94;;;4.59;100.00
12676;BME280;63820;65.654;21.944;2023-01-25T15:59:40;99444.94;;;4.47;100.00
12676;BME280;63820;65.654;21.944;2023-01-25T16:02:25;99432.34;;;4.39;100.00
12676;BME280;63820;65.654;21.944;2023-01-25T16:05:10;99456.13;;;4.46;100.00
12676;BME280;63820;65.654;21.944;2023-01-25T16:07:54;99441.03;;;4.60;100.00
12676;BME280;63820;65.654;21.944;2023-01-25T16:10:38;99443.56;;;4.62;100.00
12676;BME280;63820;65.654;21.944;2023-01-25T16:13:22;99450.19;;;4.69;100.00
12676;BME280;63820;65.654;21.944;2023-01-25T16:16:16;99445.44;;;4.81;100.00
12676;BME280;63820;65.654;21.944;2023-01-25T16:19:01;99443.91;;;4.76;100.00
12676;BME280;63820;65.654;21.944;2023-01-25T16:21:46;99459.88;;;4.85;100.00
12676;BME280;63820;65.654;21.944;2023-01-25T16:24:30;99459.16;;;4.82;100.00
12676;BME280;63820;65.654;21.944;2023-01-25T16:27:16;99472.69;;;4.64;100.00
12676;BME280;63820;65.654;21.944;2023-01-25T16:30:05;99478.84;;;4.59;100.00